Time;durP1;ratioP1;P1;durP2;ratioP2;P2;SDS_P1;SDS_P2;PMS_P1;PMS_P2;Temp;Humidity;BMP_temperature;BMP_pressure;BME280_temperature;BME280_humidity;BME280_pressure;Samples;Min_cycle;Max_cycle;Signal;HPM_P1;HPM_P2
2021/07/13 00:00:29;;;;;;;4.75;4.20;;;;;;;21.64;64.46;100330.28;1673782;83;21122;-84
2021/07/13 00:02:57;;;;;;;3.58;3.47;;;;;;;21.62;64.61;100328.37;1586716;88;21326;-83
2021/07/13 00:05:24;;;;;;;3.92;3.72;;;;;;;21.57;64.73;100323.75;1606115;89;21099;-83
2021/07/13 00:07:54;;;;;;;3.52;3.42;;;;;;;21.53;64.83;100318.03;1587018;88;20985;-82
2021/07/13 00:10:26;;;;;;;4.45;4.05;;;;;;;21.53;64.75;100322.62;1636354;85;21114;-83
2021/07/13 00:12:53;;;;;;;4.35;4.08;;;;;;;21.54;65.06;100335.92;1609108;85;20966;-84
2021/07/13 00:15:27;;;;;;;4.47;4.15;;;;;;;21.53;65.09;100333.47;1695038;80;21045;-82
2021/07/13 00:17:57;;;;;;;4.62;4.30;;;;;;;21.50;65.23;100334.81;1673623;83;21077;-83
2021/07/13 00:20:24;;;;;;;4.25;4.05;;;;;;;21.47;65.43;100332.61;1682459;83;21104;-83
2021/07/13 00:22:50;;;;;;;4.65;4.25;;;;;;;21.42;65.48;100332.57;1682070;83;21021;-83
2021/07/13 00:25:19;;;;;;;3.85;3.65;;;;;;;21.37;65.60;100335.23;1671014;83;20997;-83
2021/07/13 00:27:46;;;;;;;3.60;3.40;;;;;;;21.35;65.70;100340.91;1679890;83;21024;-83
2021/07/13 00:30:16;;;;;;;4.58;4.15;;;;;;;21.37;65.92;100346.08;1688087;83;20958;-83
2021/07/13 00:32:46;;;;;;;4.60;4.30;;;;;;;21.34;66.12;100347.95;1690858;83;21087;-82
2021/07/13 00:35:14;;;;;;;4.45;4.03;;;;;;;21.26;66.32;100345.17;1672846;82;20957;-84
2021/07/13 00:37:43;;;;;;;5.53;5.12;;;;;;;21.19;66.53;100345.92;1683591;81;21593;-83
2021/07/13 00:40:12;;;;;;;4.70;4.30;;;;;;;21.15;66.65;100345.66;1671599;84;21036;-83
2021/07/13 00:42:39;;;;;;;5.33;4.33;;;;;;;21.16;66.63;100337.78;1656008;84;21009;-83
2021/07/13 00:45:10;;;;;;;4.80;4.40;;;;;;;21.23;66.51;100343.52;1666621;84;21006;-85
2021/07/13 00:47:38;;;;;;;4.50;4.20;;;;;;;21.27;66.37;100339.24;1668383;84;21587;-84
2021/07/13 00:50:05;;;;;;;3.87;3.67;;;;;;;21.27;66.04;100335.98;1678175;84;21050;-83
2021/07/13 00:52:31;;;;;;;4.55;4.00;;;;;;;21.26;65.74;100337.05;1675600;84;21126;-83
2021/07/13 00:54:59;;;;;;;3.83;3.58;;;;;;;21.28;65.91;100341.67;1677965;84;21083;-82
2021/07/13 00:57:27;;;;;;;4.42;3.98;;;;;;;21.28;65.93;100344.38;1676018;84;21351;-82
2021/07/13 00:59:56;;;;;;;3.60;3.30;;;;;;;21.29;65.98;100341.16;1655527;85;21062;-80
2021/07/13 01:02:24;;;;;;;4.10;3.83;;;;;;;21.31;66.01;100347.94;1656649;85;21058;-82
2021/07/13 01:04:58;;;;;;;4.22;3.92;;;;;;;21.29;66.00;100341.16;1675641;84;20995;-81
2021/07/13 01:07:46;;;;;;;4.17;3.85;;;;;;;21.24;65.94;100348.69;1675240;83;21580;-82
2021/07/13 01:10:18;;;;;;;3.22;3.12;;;;;;;21.19;65.97;100354.06;1667067;84;20979;-83
2021/07/13 01:13:08;;;;;;;5.37;4.53;;;;;;;21.15;66.08;100350.23;1670423;84;21050;-83
2021/07/13 01:15:39;;;;;;;6.22;4.45;;;;;;;21.12;66.47;100347.52;1677829;83;21003;-82
2021/07/13 01:18:24;;;;;;;4.53;4.10;;;;;;;21.12;66.56;100350.23;1670849;84;21023;-81
2021/07/13 01:21:15;;;;;;;4.17;3.83;;;;;;;21.17;66.65;100351.63;1669741;81;21082;-81
2021/07/13 01:24:31;;;;;;;4.33;4.12;;;;;;;21.20;66.17;100347.03;1669617;80;20994;-81
2021/07/13 01:27:06;;;;;;;5.05;3.67;;;;;;;21.19;66.10;100346.77;1670847;80;21102;-81
2021/07/13 01:29:35;;;;;;;;;;;;;;;21.16;66.13;100339.14;1672664;84;21174;-82
2021/07/13 01:32:04;;;;;;;3.58;3.27;;;;;;;21.14;66.22;100341.30;1643805;85;20111;-82
2021/07/13 01:34:41;;;;;;;4.53;4.22;;;;;;;21.05;66.38;100344.20;1630937;85;21053;-83
2021/07/13 01:37:10;;;;;;;3.98;3.67;;;;;;;21.10;66.30;100342.89;1650064;84;21097;-82
2021/07/13 01:39:40;;;;;;;4.83;4.20;;;;;;;21.16;65.94;100339.69;1581678;89;21120;-81
2021/07/13 01:42:10;;;;;;;5.22;3.80;;;;;;;21.18;65.76;100332.92;1631182;86;21065;-82
2021/07/13 01:44:39;;;;;;;4.55;4.30;;;;;;;21.20;65.77;100336.73;1594138;87;21115;-81
2021/07/13 01:47:06;;;;;;;4.62;4.22;;;;;;;21.17;65.74;100337.24;1597905;87;21115;-83
2021/07/13 01:49:34;;;;;;;4.50;4.20;;;;;;;21.15;66.24;100340.23;1612860;87;21080;-81
2021/07/13 01:52:03;;;;;;;4.47;4.08;;;;;;;21.14;66.68;100340.48;1585330;87;21155;-83
2021/07/13 01:54:33;;;;;;;4.17;3.87;;;;;;;21.11;66.72;100339.09;1586676;89;21147;-82
2021/07/13 01:57:01;;;;;;;8.48;4.95;;;;;;;21.05;67.02;100344.75;1577090;88;21070;-83
2021/07/13 01:59:31;;;;;;;4.55;4.33;;;;;;;20.97;67.19;100346.03;1614593;87;21071;-83
2021/07/13 02:02:01;;;;;;;4.60;4.20;;;;;;;20.84;67.59;100349.97;1595927;88;21115;-82
2021/07/13 02:04:32;;;;;;;3.62;3.45;;;;;;;20.75;67.99;100352.86;1613145;87;21508;-82
2021/07/13 02:07:04;;;;;;;4.97;4.30;;;;;;;20.72;68.31;100350.65;1608869;87;21054;-82
2021/07/13 02:09:33;;;;;;;3.98;3.80;;;;;;;20.75;68.38;100357.73;1600490;88;21040;-82
2021/07/13 02:12:02;;;;;;;5.25;4.87;;;;;;;20.78;68.37;100357.23;1601682;88;21053;-81
2021/07/13 02:14:30;;;;;;;5.17;4.70;;;;;;;20.73;68.20;100363.94;1606064;87;21111;-82
2021/07/13 02:16:59;;;;;;;5.78;5.37;;;;;;;20.66;68.38;100362.51;1611516;89;21059;-82
2021/07/13 02:19:28;;;;;;;3.58;3.27;;;;;;;20.58;68.56;100361.05;1604413;88;21076;-80
2021/07/13 02:21:57;;;;;;;4.22;3.95;;;;;;;20.62;68.22;100364.91;1615111;87;21064;-83
2021/07/13 02:24:25;;;;;;;4.67;4.37;;;;;;;20.74;68.07;100362.88;1578252;89;21148;-83
2021/07/13 02:26:58;;;;;;;4.58;4.20;;;;;;;20.82;67.89;100363.50;1589597;89;21071;-83
2021/07/13 02:29:42;;;;;;;6.20;4.92;;;;;;;20.85;67.99;100361.62;1611570;87;21007;-82
2021/07/13 02:32:13;;;;;;;5.95;4.33;;;;;;;20.85;67.98;100368.39;1614038;87;21119;-83
2021/07/13 02:34:44;;;;;;;5.20;3.98;;;;;;;20.92;68.08;100364.94;1644652;82;20991;-80
2021/07/13 02:37:13;;;;;;;3.60;3.40;;;;;;;21.10;67.89;100367.28;1628488;85;21002;-83
2021/07/13 02:39:40;;;;;;;4.95;4.45;;;;;;;21.34;67.20;100366.92;1634099;85;21046;-83
2021/07/13 02:42:09;;;;;;;6.17;5.05;;;;;;;21.45;66.44;100363.79;1628895;85;21031;-82
2021/07/13 02:44:38;;;;;;;5.00;4.70;;;;;;;21.50;66.29;100363.29;1630444;85;21153;-83
2021/07/13 02:47:10;;;;;;;6.00;4.58;;;;;;;21.62;66.09;100357.66;1626966;86;21632;-82
2021/07/13 02:49:48;;;;;;;9.60;4.67;;;;;;;21.77;65.81;100357.78;1687981;83;21006;-82
2021/07/13 02:52:21;;;;;;;6.95;5.05;;;;;;;21.90;65.30;100358.38;1691220;83;21550;-83
2021/07/13 02:55:03;;;;;;;5.78;4.25;;;;;;;21.98;64.90;100366.02;1684465;83;21049;-82
2021/07/13 02:57:33;;;;;;;5.05;4.75;;;;;;;22.06;64.71;100367.44;1687513;83;21029;-82
2021/07/13 03:00:01;;;;;;;4.97;4.67;;;;;;;22.27;64.21;100378.68;1686632;83;21055;-83
2021/07/13 03:02:28;;;;;;;5.03;4.62;;;;;;;22.59;63.44;100376.90;1698360;83;21032;-84
2021/07/13 03:04:57;;;;;;;4.53;4.28;;;;;;;23.00;62.44;100368.28;1693412;83;21065;-81
2021/07/13 03:07:23;;;;;;;5.30;4.90;;;;;;;23.43;61.10;100366.66;1690606;83;21003;-83
2021/07/13 03:09:51;;;;;;;5.30;4.90;;;;;;;23.76;60.07;100372.62;1686249;83;21045;-84
2021/07/13 03:12:18;;;;;;;3.90;3.60;;;;;;;24.12;58.77;100383.44;1675412;84;21069;-86
2021/07/13 03:14:47;;;;;;;4.67;4.35;;;;;;;24.48;56.88;100377.28;1706492;83;21010;-83
2021/07/13 03:17:17;;;;;;;4.60;4.22;;;;;;;24.75;56.08;100373.34;1703031;83;21120;-84
2021/07/13 03:19:45;;;;;;;6.20;4.95;;;;;;;24.95;55.68;100371.84;1695004;83;21033;-82
2021/07/13 03:22:25;;;;;;;4.75;4.40;;;;;;;25.13;55.16;100364.07;1689205;83;21050;-82
2021/07/13 03:24:52;;;;;;;8.60;4.20;;;;;;;25.40;54.43;100368.52;1689701;83;21062;-83
2021/07/13 03:27:21;;;;;;;4.42;4.12;;;;;;;25.63;53.33;100362.83;1693646;83;21005;-81
2021/07/13 03:29:51;;;;;;;4.15;3.77;;;;;;;25.86;51.66;100362.33;1695132;83;21002;-82
2021/07/13 03:32:18;;;;;;;4.00;3.62;;;;;;;26.01;50.97;100361.66;1701043;83;21061;-82
2021/07/13 03:34:46;;;;;;;3.72;3.52;;;;;;;26.25;51.16;100364.09;1648435;85;21605;-82
2021/07/13 03:37:14;;;;;;;6.70;3.45;;;;;;;26.60;50.24;100356.00;1694359;83;21560;-82
2021/07/13 03:39:45;;;;;;;4.85;3.87;;;;;;;26.88;49.68;100356.95;1688001;83;21088;-84
2021/07/13 03:42:12;;;;;;;3.40;3.10;;;;;;;27.12;49.29;100352.72;1691941;83;21052;-83
2021/07/13 03:44:43;;;;;;;6.28;3.95;;;;;;;27.36;48.00;100343.05;1696208;83;21058;-82
2021/07/13 03:47:15;;;;;;;3.77;3.58;;;;;;;27.54;47.73;100338.63;1689841;83;21066;-83
2021/07/13 03:49:47;;;;;;;3.67;3.37;;;;;;;27.38;47.04;100327.12;1694387;83;20986;-82
2021/07/13 03:52:14;;;;;;;4.03;2.95;;;;;;;27.00;47.58;100340.08;1699022;83;21281;-83
2021/07/13 03:54:41;;;;;;;3.02;2.87;;;;;;;26.67;48.10;100335.92;1692391;83;21033;-87
2021/07/13 03:57:08;;;;;;;6.72;6.12;;;;;;;26.57;48.78;100338.23;1699789;83;21036;-84
2021/07/13 03:59:35;;;;;;;3.65;3.45;;;;;;;26.60;49.71;100339.61;1690625;83;21029;-85
2021/07/13 04:02:01;;;;;;;5.05;3.85;;;;;;;26.51;49.00;100344.08;1700632;83;21060;-84
2021/07/13 04:04:28;;;;;;;3.75;3.27;;;;;;;26.36;49.03;100350.00;1687803;83;21033;-85
2021/07/13 04:06:54;;;;;;;3.83;2.77;;;;;;;26.49;48.72;100349.83;1699089;83;21041;-84
2021/07/13 04:09:20;;;;;;;2.72;2.52;;;;;;;26.88;48.46;100356.95;1691580;83;20981;-86
2021/07/13 04:11:46;;;;;;;3.72;3.42;;;;;;;27.37;46.99;100351.52;1680732;83;21101;-84
2021/07/13 04:14:14;;;;;;;2.90;2.70;;;;;;;27.91;46.14;100349.16;1692621;83;21538;-85
2021/07/13 04:16:41;;;;;;;3.65;3.37;;;;;;;28.37;44.79;100355.63;1700143;83;21113;-85
2021/07/13 04:19:07;;;;;;;4.97;3.40;;;;;;;28.72;43.58;100362.81;1686825;83;21081;-84
2021/07/13 04:21:33;;;;;;;3.98;3.42;;;;;;;28.99;43.09;100361.09;1699270;83;21146;-85
2021/07/13 04:24:00;;;;;;;9.23;7.12;;;;;;;29.10;43.06;100353.69;1686962;83;21042;-82
2021/07/13 04:26:28;;;;;;;5.95;3.33;;;;;;;29.07;43.05;100353.50;1704573;83;20998;-83
2021/07/13 04:28:57;;;;;;;3.98;2.77;;;;;;;29.24;41.87;100350.09;1712848;83;20967;-83
2021/07/13 04:31:25;;;;;;;4.00;3.40;;;;;;;29.50;41.93;100344.17;1694576;80;21064;-81
2021/07/13 04:33:51;;;;;;;3.22;2.72;;;;;;;29.85;41.36;100343.53;1683011;82;20998;-81
2021/07/13 04:36:17;;;;;;;2.58;2.37;;;;;;;30.19;39.79;100347.51;1696104;83;21052;-84
2021/07/13 04:38:45;;;;;;;4.03;2.40;;;;;;;30.39;39.25;100346.13;1659727;83;21052;-83
2021/07/13 04:41:14;;;;;;;2.70;1.85;;;;;;;30.56;38.99;100350.83;1679994;83;21002;-85
2021/07/13 04:43:41;;;;;;;3.77;1.77;;;;;;;30.16;38.01;100269.80;1678163;83;21128;-85
2021/07/13 04:46:07;;;;;;;2.92;1.62;;;;;;;30.59;37.40;100348.80;1675711;83;21089;-86
2021/07/13 04:48:34;;;;;;;2.02;1.52;;;;;;;30.44;38.28;100351.45;1678997;83;21091;-86
2021/07/13 04:51:02;;;;;;;3.72;2.65;;;;;;;30.49;38.11;100347.17;1677218;83;21131;-86
2021/07/13 04:53:29;;;;;;;4.33;1.77;;;;;;;30.64;37.95;100347.27;1671949;83;21625;-86
2021/07/13 04:55:55;;;;;;;10.00;3.62;;;;;;;30.61;38.34;100356.98;1678404;83;21489;-86
2021/07/13 04:58:22;;;;;;;9.53;3.25;;;;;;;30.73;38.27;100348.08;1685074;83;21037;-84
2021/07/13 05:00:48;;;;;;;6.58;2.80;;;;;;;30.76;38.05;100346.06;1674175;83;21112;-86
2021/07/13 05:03:14;;;;;;;7.35;3.05;;;;;;;30.71;37.80;100348.17;1676162;83;21064;-85
2021/07/13 05:05:43;;;;;;;14.55;3.83;;;;;;;30.51;38.05;100344.91;1684408;83;21005;-87
2021/07/13 05:08:09;;;;;;;15.20;4.65;;;;;;;30.30;38.37;100356.27;1681494;83;21155;-86
2021/07/13 05:10:35;;;;;;;16.93;4.78;;;;;;;30.06;39.09;100354.20;1672695;84;20996;-88
2021/07/13 05:13:11;;;;;;;19.82;4.12;;;;;;;29.96;39.50;100355.85;1678903;83;21017;-85
2021/07/13 05:15:41;;;;;;;14.65;4.22;;;;;;;30.02;39.83;100354.57;1622291;86;21047;-86
2021/07/13 05:18:12;;;;;;;7.37;3.20;;;;;;;30.15;39.11;100348.70;1638467;85;21078;-87
2021/07/13 05:20:49;;;;;;;15.93;4.00;;;;;;;30.08;39.00;100342.32;1647251;85;21038;-86
2021/07/13 05:23:16;;;;;;;9.83;3.72;;;;;;;30.14;39.78;100333.91;1622758;86;21017;-87
2021/07/13 05:25:43;;;;;;;19.62;4.53;;;;;;;30.26;39.49;100349.22;1621058;88;21086;-87
2021/07/13 05:28:11;;;;;;;19.85;6.92;;;;;;;30.22;39.06;100345.50;1631544;85;21031;-86
2021/07/13 05:30:43;;;;;;;2.58;2.37;;;;;;;30.32;39.44;100341.09;1637553;85;20983;-86
2021/07/13 05:33:14;;;;;;;2.42;2.20;;;;;;;30.66;38.75;100340.88;1619220;81;21723;-86
2021/07/13 05:35:42;;;;;;;3.15;2.40;;;;;;;30.61;38.70;100334.98;1666407;81;21082;-87
2021/07/13 05:38:10;;;;;;;4.75;2.35;;;;;;;30.47;39.02;100337.86;1668967;83;20991;-89
2021/07/13 05:40:37;;;;;;;2.55;2.33;;;;;;;30.59;39.45;100333.12;1672542;82;21651;-87
2021/07/13 05:43:03;;;;;;;1.45;1.45;;;;;;;30.91;38.97;100328.28;1670725;83;21026;-86
2021/07/13 05:45:36;;;;;;;2.70;2.00;;;;;;;31.21;37.62;100327.81;1650882;85;21130;-88
2021/07/13 05:48:03;;;;;;;2.42;2.33;;;;;;;31.35;37.68;100337.24;1680122;84;21646;-88
2021/07/13 05:50:32;;;;;;;1.98;1.87;;;;;;;31.59;37.35;100339.47;1675256;84;21363;-85
2021/07/13 05:53:00;;;;;;;2.85;2.45;;;;;;;31.82;36.82;100327.60;1671279;84;21148;-85
2021/07/13 05:55:26;;;;;;;1.67;1.60;;;;;;;32.09;36.42;100333.80;1670118;82;21631;-85
2021/07/13 05:57:52;;;;;;;6.80;2.12;;;;;;;32.25;36.17;100327.69;1671971;84;20971;-89
2021/07/13 06:00:20;;;;;;;1.50;1.30;;;;;;;32.31;36.02;100337.41;1677301;84;21062;-86
2021/07/13 06:02:46;;;;;;;1.70;1.60;;;;;;;32.39;35.91;100330.43;1604277;87;21029;-83
2021/07/13 06:05:17;;;;;;;1.67;1.67;;;;;;;32.40;35.98;100337.58;1629354;86;21178;-85
2021/07/13 06:07:46;;;;;;;2.52;1.57;;;;;;;32.52;35.55;100330.51;1623122;84;20991;-86
2021/07/13 06:10:14;;;;;;;2.17;1.90;;;;;;;32.63;35.36;100327.61;1630338;86;21557;-86
2021/07/13 06:12:43;;;;;;;2.55;2.10;;;;;;;32.61;35.32;100331.83;1638707;85;21098;-85
2021/07/13 06:15:12;;;;;;;2.20;2.02;;;;;;;32.34;36.09;100334.78;1653346;85;21659;-87
2021/07/13 06:17:43;;;;;;;1.52;1.52;;;;;;;31.97;36.61;100328.98;1647766;85;21622;-85
2021/07/13 06:20:13;;;;;;;3.77;1.87;;;;;;;31.80;37.29;100324.38;1653694;85;21114;-85
2021/07/13 06:22:40;;;;;;;2.15;2.05;;;;;;;31.89;37.09;100334.53;1646696;85;21018;-92
2021/07/13 06:25:10;;;;;;;2.15;1.90;;;;;;;31.78;38.00;100326.66;1649614;86;21078;-94
2021/07/13 06:27:36;;;;;;;2.15;1.98;;;;;;;31.71;37.98;100335.20;1655507;85;22057;-87
2021/07/13 06:30:06;;;;;;;2.85;2.25;;;;;;;31.59;38.11;100335.87;1622620;83;21081;-89
2021/07/13 06:32:43;;;;;;;2.77;1.95;;;;;;;31.56;38.37;100340.11;1647168;83;21006;-91
2021/07/13 06:35:13;;;;;;;3.05;2.67;;;;;;;31.54;37.96;100291.44;1635035;83;21253;-90
2021/07/13 06:37:41;;;;;;;2.25;2.08;;;;;;;31.68;38.50;100338.61;1649502;82;21719;-89
2021/07/13 06:40:09;;;;;;;2.02;2.02;;;;;;;31.68;37.56;100342.74;1652177;83;21098;-84
2021/07/13 06:42:39;;;;;;;4.12;1.67;;;;;;;31.94;36.96;100325.50;1644325;82;21118;-92
2021/07/13 06:45:08;;;;;;;1.82;1.72;;;;;;;32.07;36.93;100322.30;1651439;82;20994;-83
2021/07/13 06:47:36;;;;;;;1.52;1.52;;;;;;;32.22;36.65;100324.25;1662750;82;21641;-94
2021/07/13 06:50:12;;;;;;;2.45;2.35;;;;;;;32.21;36.12;100326.17;1630865;86;21062;-90
2021/07/13 06:52:38;;;;;;;2.30;2.10;;;;;;;32.20;36.02;100321.23;1646668;85;21850;-88
2021/07/13 06:55:07;;;;;;;4.22;2.55;;;;;;;32.28;36.47;100328.41;1647125;85;21129;-87
2021/07/13 06:57:33;;;;;;;1.87;1.77;;;;;;;32.36;36.53;100313.74;1651631;86;21523;-88
2021/07/13 07:00:02;;;;;;;4.75;2.20;;;;;;;32.42;35.99;100309.66;1653234;85;21042;-88
2021/07/13 07:02:30;;;;;;;1.45;1.40;;;;;;;32.37;35.95;100312.03;1663479;85;21055;-88
2021/07/13 07:04:59;;;;;;;2.02;1.80;;;;;;;32.32;35.90;100307.29;1664509;85;21011;-88
2021/07/13 07:07:25;;;;;;;1.95;1.85;;;;;;;32.34;36.19;100303.62;1647449;85;21169;-88
2021/07/13 07:09:51;;;;;;;1.62;1.62;;;;;;;32.24;35.93;100302.66;1653016;85;21085;-88
2021/07/13 07:12:17;;;;;;;1.60;1.50;;;;;;;32.18;36.33;100308.94;1646289;85;21071;-87
2021/07/13 07:14:43;;;;;;;2.25;2.15;;;;;;;32.30;36.19;100309.00;1657117;85;21460;-89
2021/07/13 07:17:09;;;;;;;3.92;1.55;;;;;;;32.43;36.03;100304.94;1638996;86;21134;-89
2021/07/13 07:19:36;;;;;;;7.37;1.92;;;;;;;32.34;35.82;100301.69;1647218;85;21051;-88
2021/07/13 07:22:07;;;;;;;3.50;1.92;;;;;;;32.14;36.13;100317.08;1653601;85;21102;-89
2021/07/13 07:24:33;;;;;;;1.55;1.40;;;;;;;31.99;37.20;100305.22;1642247;86;21011;-90
2021/07/13 07:26:59;;;;;;;2.77;1.70;;;;;;;32.08;37.06;100310.70;1655197;86;21074;-87
2021/07/13 07:29:25;;;;;;;1.77;1.27;;;;;;;32.06;37.49;100313.81;1655570;85;21480;-89
2021/07/13 07:31:51;;;;;;;1.92;1.82;;;;;;;32.10;37.12;100308.41;1631672;86;21054;-88
2021/07/13 07:34:19;;;;;;;2.02;1.90;;;;;;;32.19;36.59;100305.02;1655245;84;21137;-88
2021/07/13 07:36:45;;;;;;;5.58;2.00;;;;;;;32.21;36.71;100308.25;1656311;85;20999;-89
2021/07/13 07:39:12;;;;;;;2.37;1.90;;;;;;;32.29;36.63;100313.50;1648354;85;21035;-86
2021/07/13 07:41:38;;;;;;;3.20;2.02;;;;;;;32.31;36.70;100305.69;1665206;82;21005;-88
2021/07/13 07:44:06;;;;;;;4.08;2.85;;;;;;;32.28;36.92;100303.02;1649989;83;21066;-84
2021/07/13 07:46:33;;;;;;;2.05;1.95;;;;;;;32.20;36.58;100311.59;1659581;82;21065;-85
2021/07/13 07:49:02;;;;;;;2.12;1.92;;;;;;;31.98;36.88;100304.39;1647533;83;21050;-86
2021/07/13 07:51:28;;;;;;;2.37;2.27;;;;;;;31.68;37.44;100298.66;1653606;82;21051;-88
2021/07/13 07:53:57;;;;;;;4.25;2.12;;;;;;;31.44;38.58;100306.93;1650931;83;21128;-89
2021/07/13 07:56:23;;;;;;;2.65;2.47;;;;;;;31.43;38.51;100303.92;1647128;85;20991;-91
2021/07/13 07:58:50;;;;;;;2.50;2.02;;;;;;;31.42;38.37;100303.70;1662682;85;21137;-87
2021/07/13 08:01:17;;;;;;;2.45;1.77;;;;;;;31.42;38.40;100306.45;1656891;85;21109;-88
2021/07/13 08:03:44;;;;;;;3.90;2.02;;;;;;;31.46;38.06;100298.31;1646379;85;21027;-87
2021/07/13 08:06:15;;;;;;;2.58;2.47;;;;;;;31.48;37.82;100305.73;1661127;85;21094;-84
2021/07/13 08:08:46;;;;;;;4.12;1.92;;;;;;;31.61;37.33;100297.23;1657161;85;21084;-87
2021/07/13 08:11:12;;;;;;;1.95;1.85;;;;;;;31.35;36.47;100242.23;1649876;85;21035;-86
2021/07/13 08:13:40;;;;;;;2.00;1.90;;;;;;;31.69;36.75;100294.20;1639574;86;21081;-89
2021/07/13 08:16:08;;;;;;;2.37;2.27;;;;;;;31.56;37.06;100289.73;1649504;85;21098;-88
2021/07/13 08:18:37;;;;;;;4.72;2.35;;;;;;;31.48;37.18;100289.21;1649970;85;21089;-87
2021/07/13 08:21:07;;;;;;;3.25;2.45;;;;;;;31.38;36.74;100298.59;1654186;85;21093;-89
2021/07/13 08:23:33;;;;;;;2.67;2.50;;;;;;;31.29;36.49;100305.52;1649854;85;21054;-89
2021/07/13 08:26:00;;;;;;;2.58;2.42;;;;;;;31.29;36.49;100293.67;1653163;85;21007;-87
2021/07/13 08:28:26;;;;;;;1.80;1.80;;;;;;;31.32;37.00;100301.30;1646961;82;20986;-89
2021/07/13 08:30:54;;;;;;;1.70;1.60;;;;;;;31.37;36.21;100298.37;1662977;82;20988;-87
2021/07/13 08:33:20;;;;;;;2.10;2.00;;;;;;;31.35;36.97;100289.62;1664265;83;21002;-86
2021/07/13 08:35:48;;;;;;;2.95;1.98;;;;;;;31.19;37.45;100294.30;1654811;85;21598;-88
2021/07/13 08:38:16;;;;;;;3.47;2.45;;;;;;;31.07;37.51;100290.03;1660578;85;21161;-88
2021/07/13 08:40:46;;;;;;;2.90;2.58;;;;;;;31.04;37.53;100292.05;1668952;85;21586;-86
2021/07/13 08:43:13;;;;;;;2.85;2.45;;;;;;;31.05;37.92;100299.98;1656547;85;21059;-90
2021/07/13 08:45:42;;;;;;;2.47;2.37;;;;;;;31.05;37.81;100292.30;1659730;85;20967;-87
2021/07/13 08:48:12;;;;;;;6.17;1.77;;;;;;;31.12;37.48;100297.29;1660654;85;21045;-86
2021/07/13 08:50:39;;;;;;;1.65;1.57;;;;;;;31.07;35.98;100305.17;1668657;82;21093;-80
2021/07/13 08:53:06;;;;;;;4.67;1.30;;;;;;;31.02;34.52;100303.41;1661999;82;21102;-88
2021/07/13 08:55:34;;;;;;;3.72;1.87;;;;;;;31.04;34.46;100309.94;1665935;82;20979;-86
2021/07/13 08:58:00;;;;;;;2.45;1.52;;;;;;;30.90;35.62;100306.02;1657882;85;21106;-86
2021/07/13 09:00:26;;;;;;;1.95;1.72;;;;;;;30.68;36.84;100301.47;1656230;85;21086;-88
2021/07/13 09:03:13;;;;;;;2.77;1.77;;;;;;;30.43;37.53;100299.77;1633802;86;21125;-87
2021/07/13 09:05:56;;;;;;;1.82;1.72;;;;;;;30.25;37.89;100301.69;1655621;85;21058;-88
2021/07/13 09:08:30;;;;;;;4.33;1.82;;;;;;;30.23;37.94;100297.63;1648017;85;21090;-89
2021/07/13 09:11:22;;;;;;;5.58;1.75;;;;;;;30.26;38.26;100299.73;1650064;85;21251;-89
2021/07/13 09:13:59;;;;;;;2.72;1.70;;;;;;;30.27;38.05;100301.34;1659900;85;21107;-88
2021/07/13 09:16:30;;;;;;;1.37;1.37;;;;;;;30.32;37.08;100310.84;1644720;86;21543;-86
2021/07/13 09:18:59;;;;;;;2.52;1.42;;;;;;;30.35;36.50;100297.84;1662932;85;21018;-87
2021/07/13 09:21:33;;;;;;;2.37;2.08;;;;;;;30.26;37.11;100303.86;1649830;85;21011;-86
2021/07/13 09:24:22;;;;;;;2.22;2.02;;;;;;;30.17;37.73;100297.55;1665571;85;21598;-87
2021/07/13 09:27:00;;;;;;;10.27;2.47;;;;;;;30.15;38.00;100306.67;1657615;85;21559;-87
2021/07/13 09:29:40;;;;;;;1.52;1.50;;;;;;;30.23;37.91;100290.75;1655307;85;21977;-88
2021/07/13 09:32:35;;;;;;;2.00;1.90;;;;;;;30.31;38.19;100294.64;1655555;85;21061;-86
2021/07/13 09:35:13;;;;;;;3.70;1.85;;;;;;;30.37;38.83;100284.58;1654656;85;21082;-87
2021/07/13 09:37:43;;;;;;;3.65;2.90;;;;;;;30.41;38.81;100280.61;1649467;85;21321;-88
2021/07/13 09:40:13;;;;;;;3.27;2.30;;;;;;;30.36;39.75;100301.39;1660698;85;21042;-88
2021/07/13 09:42:52;;;;;;;5.65;1.98;;;;;;;30.28;39.55;100287.85;1655989;85;21062;-88
2021/07/13 09:45:32;;;;;;;3.12;1.92;;;;;;;30.20;39.80;100286.72;1645563;85;21094;-87
2021/07/13 09:49:59;;;;;;;5.58;3.00;;;;;;;30.16;40.31;100279.42;1870460;75;23382;-87
2021/07/13 09:52:26;;;;;;;2.60;2.37;;;;;;;30.11;40.32;100282.34;1854560;76;21047;-87
2021/07/13 09:54:52;;;;;;;4.75;2.70;;;;;;;30.06;40.42;100285.50;1807522;77;21026;-86
2021/07/13 09:57:23;;;;;;;3.42;2.58;;;;;;;30.00;40.62;100292.25;1776546;77;21038;-86
2021/07/13 09:59:53;;;;;;;3.00;2.83;;;;;;;29.88;40.97;100290.70;1763067;80;21514;-90
2021/07/13 10:02:25;;;;;;;2.72;2.25;;;;;;;29.85;40.87;100289.39;1791163;78;20986;-88
2021/07/13 10:04:50;;;;;;;3.87;2.27;;;;;;;29.88;41.13;100307.98;1790699;78;21146;-86
2021/07/13 10:07:21;;;;;;;3.67;2.08;;;;;;;29.95;40.69;100304.79;1782586;78;21054;-87
2021/07/13 10:09:52;;;;;;;1.95;1.80;;;;;;;30.05;40.29;100298.98;1788892;78;21072;-88
2021/07/13 10:12:26;;;;;;;2.87;2.00;;;;;;;30.17;40.24;100297.55;1723731;82;21631;-88
2021/07/13 10:14:58;;;;;;;1.95;1.85;;;;;;;30.24;40.20;100289.63;1718416;82;20978;-86
2021/07/13 10:17:31;;;;;;;3.05;1.80;;;;;;;30.27;40.19;100302.72;1747160;81;20978;-85
2021/07/13 10:20:09;;;;;;;2.08;1.92;;;;;;;30.29;38.88;100285.36;1729655;79;21000;-81
2021/07/13 10:22:44;;;;;;;;;;;;;;;30.12;39.53;100265.53;1743283;81;21124;-86
2021/07/13 10:25:13;;;;;;;2.50;2.30;;;;;;;30.26;39.90;100288.74;1745590;81;20113;-87
2021/07/13 10:27:43;;;;;;;2.02;1.85;;;;;;;30.20;39.70;100299.66;1750749;81;21020;-89
2021/07/13 10:30:21;;;;;;;3.35;2.05;;;;;;;30.18;39.64;100297.80;1745592;79;20957;-83
2021/07/13 10:32:48;;;;;;;7.55;2.77;;;;;;;30.11;40.04;100301.58;1757572;81;20967;-87
2021/07/13 10:35:26;;;;;;;2.67;2.22;;;;;;;30.01;40.01;100297.20;1767627;81;21006;-88
2021/07/13 10:38:00;;;;;;;3.12;2.00;;;;;;;29.95;39.99;100295.17;1732569;81;21092;-89
2021/07/13 10:40:39;;;;;;;2.58;2.37;;;;;;;29.97;40.28;100295.66;1751163;81;21030;-86
2021/07/13 10:43:22;;;;;;;2.22;2.00;;;;;;;30.00;40.05;100284.01;1766494;80;21062;-87
2021/07/13 10:46:08;;;;;;;3.72;2.00;;;;;;;30.24;39.77;100296.50;1723020;81;21093;-86
2021/07/13 10:48:34;;;;;;;2.75;2.25;;;;;;;30.32;39.82;100299.84;1697158;82;21584;-86
2021/07/13 10:51:06;;;;;;;3.00;2.15;;;;;;;30.36;40.58;100291.77;1700664;83;21127;-85
2021/07/13 10:53:42;;;;;;;2.95;1.92;;;;;;;30.37;40.85;100294.77;1682788;79;21071;-87
2021/07/13 10:56:12;;;;;;;3.17;2.33;;;;;;;30.39;40.87;100287.01;1705414;78;21037;-86
2021/07/13 10:58:48;;;;;;;2.77;2.47;;;;;;;30.41;40.69;100284.73;1701318;78;21088;-88
2021/07/13 11:01:22;;;;;;;2.70;2.50;;;;;;;30.47;41.00;100286.19;1693652;78;20958;-88
2021/07/13 11:03:50;;;;;;;2.87;2.52;;;;;;;30.56;40.30;100287.58;1670210;81;21059;-85
2021/07/13 11:06:19;;;;;;;6.35;2.65;;;;;;;30.62;39.93;100278.02;1667677;84;21384;-86
2021/07/13 11:09:03;;;;;;;6.17;2.90;;;;;;;30.63;40.03;100293.40;1704224;82;21546;-87
2021/07/13 11:11:28;;;;;;;2.37;2.17;;;;;;;30.60;39.88;100279.70;1705259;82;21000;-86
2021/07/13 11:14:07;;;;;;;2.37;2.05;;;;;;;30.64;39.86;100280.67;1690922;83;22277;-88
2021/07/13 11:16:47;;;;;;;4.70;2.47;;;;;;;30.66;39.78;100283.91;1692496;83;21055;-86
2021/07/13 11:19:16;;;;;;;4.20;2.70;;;;;;;30.66;39.68;100281.73;1696227;83;21020;-87
2021/07/13 11:21:50;;;;;;;4.62;2.55;;;;;;;30.66;39.92;100283.91;1661073;84;21665;-86
2021/07/13 11:24:24;;;;;;;2.50;2.30;;;;;;;30.69;39.96;100294.84;1692253;82;21048;-87
2021/07/13 11:26:57;;;;;;;3.55;2.10;;;;;;;30.69;39.97;100267.34;1701535;82;21739;-88
2021/07/13 11:29:29;;;;;;;2.83;2.50;;;;;;;30.64;39.89;100275.75;1705014;82;21060;-89
2021/07/13 11:32:02;;;;;;;3.33;2.27;;;;;;;30.64;40.03;100289.50;1654535;85;21021;-88
2021/07/13 11:34:37;;;;;;;2.52;2.40;;;;;;;30.65;40.25;100263.63;1696103;82;21120;-89
2021/07/13 11:37:08;;;;;;;2.37;2.27;;;;;;;30.64;40.20;100275.17;1690309;82;21053;-87
2021/07/13 11:39:38;;;;;;;2.08;1.98;;;;;;;30.64;40.21;100270.25;1699354;82;21037;-87